Beachwood, Ohio
Current Conditions -  °F | °C
As of 10:45 AM on Saturday 25 Oct 2014 (Local Time) from KCGF Reporting Station
Broken Clouds Broken Clouds  
Wind Chill: 63°   Ceiling: 5000
Heat Index: 63°   Visibility: 10mi
Dew Point: 52°   Wind: 14mph
Humidity: 68%   Direction: 230°SW
Pressure: 29.84"   Gusts: NA
Location:  41.49°N, 81.5°W
Report Text: KCGF 251445Z 23012KT 10SM BKN050 BKN150 17/11 A2984
Loading
Personal Weather Stations






























Interactive Weather Map
Tropical Storm Tracking
New forecast layout! Learn more

10-Day Weather Forecast

Advertisements
Track Severe Weather on mobile